This is the latest recevied weather packets stored in our database for station/object DL4MGC-10. If no packets are shown the sender has not sent any weather packets the latest 10 day(s).
| Time | Temp. | Humidity | Pressure | Rain* | Wind** | Luminosity | Snow |
|---|---|---|---|---|---|---|---|
| 1777601337 | 5° C | 66% | 1025.5 hPa | - | - | - | - |
| 1777600437 | 5.56° C | 64% | 1025.5 hPa | - | - | - | - |
| 1777599537 | 5.56° C | 64% | 1025.5 hPa | - | - | - | - |
| 1777598637 | 5.56° C | 65% | 1025.6 hPa | - | - | - | - |
| 1777597737 | 5.56° C | 65% | 1025.8 hPa | - | - | - | - |
| 1777596837 | 6.11° C | 62% | 1025.8 hPa | - | - | - | - |
| 1777595936 | 6.11° C | 64% | 1026 hPa | - | - | - | - |
| 1777595036 | 6.11° C | 64% | 1025.9 hPa | - | - | - | - |
| 1777594136 | 6.11° C | 66% | 1025.8 hPa | - | - | - | - |
| 1777593236 | 6.11° C | 65% | 1025.8 hPa | - | - | - | - |
| 1777592336 | 5.56° C | 64% | 1026 hPa | - | - | - | - |
| 1777591436 | 6.11° C | 65% | 1026 hPa | - | - | - | - |
| 1777590536 | 7.22° C | 64% | 1025.9 hPa | - | - | - | - |
| 1777589636 | 7.22° C | 64% | 1025.9 hPa | - | - | - | - |
| 1777588736 | 7.78° C | 61% | 1025.9 hPa | - | - | - | - |
| 1777587836 | 7.78° C | 61% | 1026 hPa | - | - | - | - |
| 1777586936 | 7.78° C | 60% | 1025.8 hPa | - | - | - | - |
| 1777586036 | 8.33° C | 59% | 1025.9 hPa | - | - | - | - |
| 1777585135 | 8.89° C | 56% | 1025.8 hPa | - | - | - | - |
| 1777584235 | 8.89° C | 57% | 1025.9 hPa | - | - | - | - |
| 1777583335 | 9.44° C | 55% | 1025.8 hPa | - | - | - | - |
| 1777582435 | 8.89° C | 58% | 1025.8 hPa | - | - | - | - |
| 1777581535 | 10° C | 53% | 1025.8 hPa | - | - | - | - |
| 1777580635 | 10.56° C | 49% | 1025.7 hPa | - | - | - | - |
| 1777579735 | 11.11° C | 46% | 1025.6 hPa | - | - | - | - |
* Rain since midnight (hover to see other rain measurements)
** Current wind speed in m/s (hover to see current wind gust speed)